Time;durP1;ratioP1;P1;durP2;ratioP2;P2;SDS_P1;SDS_P2;PMS_P1;PMS_P2;Temp;Humidity;BMP_temperature;BMP_pressure;BME280_temperature;BME280_humidity;BME280_pressure;Samples;Min_cycle;Max_cycle;Signal;HPM_P1;HPM_P2
2024/01/01 00:01:49;;;;;;;19.48;10.80;;;8.50;99.90;;;;;;5054751;28;20083;-88
2024/01/01 00:04:14;;;;;;;22.23;12.10;;;8.50;99.90;;;;;;5089569;28;20035;-87
2024/01/01 00:06:40;;;;;;;19.35;10.93;;;8.50;99.90;;;;;;5078677;28;20052;-88
2024/01/01 00:09:06;;;;;;;28.08;15.00;;;8.50;99.90;;;;;;5055568;28;20035;-89
2024/01/01 00:11:31;;;;;;;21.17;12.93;;;8.60;99.90;;;;;;5089629;28;20071;-89
2024/01/01 00:13:57;;;;;;;31.05;18.70;;;8.60;99.90;;;;;;5089708;28;20491;-88
2024/01/01 00:16:22;;;;;;;42.83;21.75;;;8.60;99.90;;;;;;5072777;28;20665;-91
2024/01/01 00:18:48;;;;;;;37.38;22.00;;;8.60;99.90;;;;;;5072852;28;20108;-90
2024/01/01 00:21:14;;;;;;;30.67;17.20;;;8.60;99.90;;;;;;5071131;28;20076;-90
2024/01/01 00:23:39;;;;;;;31.00;18.08;;;8.70;99.90;;;;;;5073874;28;20518;-89
2024/01/01 00:26:05;;;;;;;20.45;10.68;;;8.70;99.90;;;;;;5073187;28;20036;-89
2024/01/01 00:28:31;;;;;;;24.50;12.77;;;8.70;99.90;;;;;;5072271;28;20608;-90
2024/01/01 00:30:56;;;;;;;20.17;9.43;;;8.70;99.90;;;;;;5072390;28;20129;-90
2024/01/01 00:33:22;;;;;;;16.60;8.20;;;8.70;99.90;;;;;;5088821;28;20043;-90
2024/01/01 00:35:48;;;;;;;17.95;8.45;;;8.70;99.90;;;;;;5089242;28;20140;-90
2024/01/01 00:38:14;;;;;;;19.02;9.98;;;8.70;99.90;;;;;;5072270;28;20032;-89
2024/01/01 00:40:40;;;;;;;18.88;8.60;;;8.70;99.90;;;;;;5071427;28;20059;-90
2024/01/01 00:43:06;;;;;;;12.52;5.85;;;8.70;99.90;;;;;;5072108;28;20119;-90
2024/01/01 00:45:31;;;;;;;16.90;7.72;;;8.70;99.90;;;;;;5071987;28;20122;-89
2024/01/01 00:47:57;;;;;;;15.02;7.03;;;8.70;99.90;;;;;;5072364;28;20071;-90
2024/01/01 00:50:22;;;;;;;19.13;7.97;;;8.70;99.90;;;;;;5089200;28;20486;-90
2024/01/01 00:52:48;;;;;;;8.93;3.88;;;8.70;99.90;;;;;;5070466;28;20040;-91
2024/01/01 00:55:14;;;;;;;22.20;9.45;;;8.70;99.90;;;;;;5052558;28;20211;-89
2024/01/01 00:57:39;;;;;;;12.63;6.32;;;8.70;99.90;;;;;;5064483;28;20121;-91
2024/01/01 01:00:06;;;;;;;11.50;6.15;;;8.70;99.90;;;;;;5081772;28;20041;-89
2024/01/01 01:02:31;;;;;;;14.80;5.30;;;8.70;99.90;;;;;;5063372;28;20396;-90
2024/01/01 01:04:57;;;;;;;12.02;6.13;;;8.70;99.90;;;;;;5070983;28;20518;-90
2024/01/01 01:07:22;;;;;;;28.65;19.92;;;8.70;99.90;;;;;;5051265;28;20119;-89
2024/01/01 01:09:48;;;;;;;14.18;6.05;;;8.70;99.90;;;;;;5070717;28;20089;-90
2024/01/01 01:12:16;;;;;;;13.63;4.88;;;8.70;99.90;;;;;;5070938;28;20119;-90
2024/01/01 01:14:42;;;;;;;21.20;7.95;;;8.70;99.90;;;;;;5071414;28;20468;-90
2024/01/01 01:17:08;;;;;;;16.63;8.88;;;8.70;99.90;;;;;;5071648;28;20085;-91
2024/01/01 01:19:34;;;;;;;25.10;10.88;;;8.70;99.90;;;;;;5089040;28;20032;-90
2024/01/01 01:21:59;;;;;;;20.63;11.02;;;8.70;99.90;;;;;;5071868;28;20032;-92
2024/01/01 01:24:25;;;;;;;17.10;8.02;;;8.70;99.90;;;;;;5071521;28;20460;-90
2024/01/01 01:26:51;;;;;;;24.75;9.32;;;8.70;99.90;;;;;;5063025;28;20559;-90
2024/01/01 01:29:17;;;;;;;17.05;7.28;;;8.70;99.90;;;;;;5070625;28;20036;-91
2024/01/01 01:31:45;;;;;;;21.73;7.78;;;8.70;99.90;;;;;;5070647;28;20036;-91
2024/01/01 01:34:12;;;;;;;21.58;9.77;;;8.70;99.90;;;;;;5070627;28;20449;-90
2024/01/01 01:36:37;;;;;;;22.05;11.05;;;8.70;99.90;;;;;;5088010;28;20059;-90
2024/01/01 01:39:03;;;;;;;21.48;9.27;;;8.70;99.90;;;;;;5088114;28;20508;-90
2024/01/01 01:41:29;;;;;;;9.52;5.13;;;8.70;99.90;;;;;;5084601;28;20475;-90
2024/01/01 01:43:55;;;;;;;22.75;8.95;;;8.60;99.90;;;;;;5058247;28;20036;-90
2024/01/01 01:46:21;;;;;;;12.13;6.43;;;8.60;99.90;;;;;;5071564;28;20631;-91
2024/01/01 01:48:47;;;;;;;18.85;7.72;;;8.60;99.90;;;;;;5088541;28;20395;-90
2024/01/01 01:51:13;;;;;;;17.70;8.32;;;8.60;99.90;;;;;;5071548;28;20036;-90
2024/01/01 01:53:40;;;;;;;19.08;8.13;;;8.50;99.90;;;;;;5074920;28;20446;-90
2024/01/01 01:56:07;;;;;;;14.23;6.50;;;8.50;99.90;;;;;;5075612;28;20483;-90
2024/01/01 01:58:34;;;;;;;13.18;6.47;;;8.60;99.90;;;;;;5092741;28;20071;-91
2024/01/01 02:01:00;;;;;;;14.65;6.30;;;8.60;99.90;;;;;;5075459;28;20044;-90
2024/01/01 02:03:26;;;;;;;14.93;6.25;;;8.60;99.90;;;;;;5091046;28;20043;-89
2024/01/01 02:05:54;;;;;;;11.70;5.88;;;8.60;99.90;;;;;;5061654;28;20048;-89
2024/01/01 02:08:21;;;;;;;13.35;5.78;;;8.60;99.90;;;;;;5069647;28;20561;-89
2024/01/01 02:10:46;;;;;;;14.05;6.07;;;8.60;99.90;;;;;;5073978;28;20081;-89
2024/01/01 02:13:25;;;;;;;14.57;7.30;;;8.60;99.90;;;;;;5074781;28;20032;-90
2024/01/01 02:15:51;;;;;;;18.00;9.40;;;8.60;99.90;;;;;;5089690;28;20050;-90
2024/01/01 02:18:17;;;;;;;13.60;6.68;;;8.60;99.90;;;;;;5040113;28;20048;-91
2024/01/01 02:20:43;;;;;;;15.68;7.43;;;8.60;99.90;;;;;;5041226;28;20053;-90
2024/01/01 02:23:08;;;;;;;12.95;5.85;;;8.60;99.90;;;;;;5043392;28;20525;-91
2024/01/01 02:25:34;;;;;;;16.05;6.95;;;8.50;99.90;;;;;;5059606;28;20470;-90
2024/01/01 02:27:59;;;;;;;13.15;4.85;;;8.50;99.90;;;;;;5060224;28;20033;-91
2024/01/01 02:30:25;;;;;;;13.93;4.68;;;8.50;99.90;;;;;;5042815;28;20040;-91
2024/01/01 02:32:51;;;;;;;10.30;4.00;;;8.60;99.90;;;;;;5040085;28;20535;-91
2024/01/01 02:35:16;;;;;;;9.73;3.67;;;8.60;99.90;;;;;;5042301;28;20127;-91
2024/01/01 02:37:42;;;;;;;12.02;4.50;;;8.60;99.90;;;;;;5058525;28;20116;-91
2024/01/01 02:40:08;;;;;;;11.15;2.88;;;8.60;99.90;;;;;;5041066;28;20126;-91
2024/01/01 02:42:34;;;;;;;8.55;2.42;;;8.60;99.90;;;;;;5041752;28;20071;-90
2024/01/01 02:45:00;;;;;;;6.90;2.25;;;8.50;99.90;;;;;;5039628;28;20032;-91
2024/01/01 02:47:26;;;;;;;7.72;2.75;;;8.50;99.90;;;;;;5040279;28;20093;-91
2024/01/01 02:49:51;;;;;;;9.25;2.92;;;8.40;99.90;;;;;;5070608;28;20032;-90
2024/01/01 02:52:17;;;;;;;9.75;2.92;;;8.40;99.90;;;;;;5074152;28;20127;-91
2024/01/01 02:54:43;;;;;;;6.75;2.45;;;8.40;99.90;;;;;;5068960;28;20132;-91
2024/01/01 02:57:08;;;;;;;6.35;1.55;;;8.40;99.90;;;;;;5071303;28;20134;-90
2024/01/01 02:59:34;;;;;;;6.43;1.83;;;8.50;99.90;;;;;;5054362;28;20040;-90
2024/01/01 03:02:00;;;;;;;8.40;1.65;;;8.40;99.90;;;;;;5054203;28;20473;-90
2024/01/01 03:04:28;;;;;;;5.63;1.45;;;8.40;99.90;;;;;;5064183;28;20054;-90
2024/01/01 03:06:54;;;;;;;10.95;2.22;;;8.40;99.90;;;;;;5072837;28;20040;-90
2024/01/01 03:09:19;;;;;;;7.18;2.17;;;8.40;99.90;;;;;;5084373;28;20090;-90
2024/01/01 03:11:46;;;;;;;7.10;1.92;;;8.40;99.90;;;;;;5041059;28;20217;-90
2024/01/01 03:14:11;;;;;;;6.18;1.70;;;8.30;99.90;;;;;;5039738;28;20415;-90
2024/01/01 03:16:37;;;;;;;6.25;1.50;;;8.30;99.90;;;;;;5066373;28;20033;-90
2024/01/01 03:19:03;;;;;;;5.72;1.30;;;8.30;99.90;;;;;;5074226;28;20051;-90
2024/01/01 03:21:28;;;;;;;8.68;1.58;;;8.20;99.90;;;;;;5057742;28;20566;-90
2024/01/01 03:23:54;;;;;;;7.03;1.38;;;8.20;99.90;;;;;;5073648;28;20036;-89
2024/01/01 03:26:20;;;;;;;3.88;1.27;;;8.20;99.90;;;;;;5073820;28;20043;-90
2024/01/01 03:28:45;;;;;;;3.92;1.42;;;8.20;99.90;;;;;;5073874;28;20395;-91
2024/01/01 03:31:11;;;;;;;4.82;1.58;;;8.20;99.90;;;;;;5065426;28;20127;-89
2024/01/01 03:33:36;;;;;;;7.43;1.15;;;8.10;99.90;;;;;;5073913;28;20036;-90
2024/01/01 03:36:02;;;;;;;2.67;1.05;;;8.10;99.90;;;;;;5090220;28;20122;-89
2024/01/01 03:38:28;;;;;;;6.35;1.45;;;8.00;99.90;;;;;;5073762;28;20035;-89
2024/01/01 03:40:53;;;;;;;8.15;1.83;;;8.00;99.90;;;;;;5073447;28;20545;-90
2024/01/01 03:43:19;;;;;;;2.78;0.93;;;8.00;99.90;;;;;;5072391;28;20499;-90
2024/01/01 03:45:46;;;;;;;5.00;1.10;;;7.90;99.90;;;;;;5090482;28;20537;-90
2024/01/01 03:48:12;;;;;;;7.57;1.80;;;7.90;99.90;;;;;;5073353;28;20040;-90
2024/01/01 03:50:38;;;;;;;5.97;2.15;;;7.90;99.90;;;;;;5073272;28;20032;-90
2024/01/01 03:53:03;;;;;;;5.03;2.25;;;7.80;99.90;;;;;;5072918;28;20042;-89
2024/01/01 03:55:29;;;;;;;8.45;1.92;;;7.80;99.90;;;;;;5069821;28;20040;-91
2024/01/01 03:57:55;;;;;;;4.38;1.65;;;7.80;99.90;;;;;;5053564;28;20120;-91
2024/01/01 04:00:20;;;;;;;6.30;1.52;;;7.80;99.90;;;;;;5053257;28;20044;-88
2024/01/01 04:02:48;;;;;;;5.85;1.52;;;7.80;99.90;;;;;;5053410;28;20491;-89
2024/01/01 04:05:14;;;;;;;4.35;0.98;;;7.80;99.90;;;;;;5087286;28;20086;-90
2024/01/01 04:07:39;;;;;;;5.85;1.63;;;7.80;99.90;;;;;;5067384;28;20068;-90
2024/01/01 04:10:06;;;;;;;7.63;1.98;;;7.80;99.90;;;;;;5070830;28;20515;-90
2024/01/01 04:12:32;;;;;;;8.73;1.40;;;7.80;99.90;;;;;;5071178;28;20082;-89
2024/01/01 04:14:58;;;;;;;3.85;1.30;;;7.80;99.90;;;;;;5070670;28;20036;-89
2024/01/01 04:17:23;;;;;;;2.67;0.88;;;7.80;99.90;;;;;;5071126;28;20071;-90
2024/01/01 04:19:49;;;;;;;6.63;1.55;;;7.80;99.90;;;;;;5088086;28;20028;-90
2024/01/01 04:22:16;;;;;;;3.17;1.65;;;7.80;99.90;;;;;;5087949;28;20437;-90
2024/01/01 04:24:42;;;;;;;5.07;1.00;;;7.80;99.90;;;;;;5070806;28;20446;-89
2024/01/01 04:27:08;;;;;;;9.25;1.52;;;7.70;99.90;;;;;;5071204;28;20123;-90
2024/01/01 04:29:34;;;;;;;4.40;1.23;;;7.70;99.90;;;;;;5056674;28;20115;-90
2024/01/01 04:31:59;;;;;;;7.07;1.58;;;7.70;99.90;;;;;;5089569;28;20553;-90
2024/01/01 04:34:25;;;;;;;4.35;1.63;;;7.70;99.90;;;;;;5072332;28;20043;-90
2024/01/01 04:36:51;;;;;;;2.97;1.20;;;7.70;99.90;;;;;;5072476;28;20462;-90
2024/01/01 04:39:16;;;;;;;4.65;1.45;;;7.70;99.90;;;;;;5072502;28;20079;-90
2024/01/01 04:41:42;;;;;;;4.72;1.65;;;7.70;99.90;;;;;;5068692;28;20044;-90
2024/01/01 04:44:08;;;;;;;2.60;0.73;;;7.70;99.90;;;;;;5062426;28;20499;-90
2024/01/01 04:46:33;;;;;;;8.52;1.90;;;7.70;99.90;;;;;;5087145;28;20036;-90
2024/01/01 04:48:59;;;;;;;4.72;1.67;;;7.60;99.90;;;;;;5090238;28;20020;-89
2024/01/01 04:51:25;;;;;;;4.65;1.65;;;7.60;99.90;;;;;;5073026;28;20445;-90
2024/01/01 04:53:51;;;;;;;5.78;1.40;;;7.70;99.90;;;;;;5066337;28;20131;-90
2024/01/01 04:56:17;;;;;;;3.78;1.42;;;7.70;99.90;;;;;;5072481;28;20043;-90
2024/01/01 04:58:46;;;;;;;3.60;1.15;;;7.70;99.90;;;;;;5062717;28;20036;-90
2024/01/01 05:01:11;;;;;;;7.28;1.67;;;7.70;99.90;;;;;;5079490;28;20499;-89
2024/01/01 05:03:37;;;;;;;9.38;2.15;;;7.70;99.90;;;;;;5061743;28;20063;-89
2024/01/01 05:06:02;;;;;;;5.20;1.58;;;7.70;99.90;;;;;;5077970;28;20062;-91
2024/01/01 05:08:28;;;;;;;4.97;1.05;;;7.70;99.90;;;;;;5058359;28;20072;-90
2024/01/01 05:10:54;;;;;;;8.18;1.30;;;7.70;99.90;;;;;;5050461;28;20048;-91
2024/01/01 05:13:19;;;;;;;11.80;2.22;;;7.70;99.90;;;;;;5069963;28;20036;-91
2024/01/01 05:15:45;;;;;;;2.55;0.80;;;7.70;99.90;;;;;;5072274;28;20043;-89
2024/01/01 05:18:11;;;;;;;3.60;0.85;;;7.70;99.90;;;;;;5088961;28;20040;-91
2024/01/01 05:20:38;;;;;;;3.63;1.13;;;7.70;99.90;;;;;;5072030;28;20040;-90
2024/01/01 05:23:03;;;;;;;4.65;0.80;;;7.70;99.90;;;;;;5071905;28;20047;-90
2024/01/01 05:25:29;;;;;;;9.45;1.75;;;7.70;99.90;;;;;;5071793;28;20036;-90
2024/01/01 05:27:54;;;;;;;4.43;1.30;;;7.70;99.90;;;;;;5075137;28;20044;-90
2024/01/01 05:30:20;;;;;;;5.20;1.98;;;7.70;99.90;;;;;;5093098;28;20050;-91
2024/01/01 05:32:46;;;;;;;6.82;1.42;;;7.70;99.90;;;;;;5075974;28;20042;-91
2024/01/01 05:35:11;;;;;;;6.03;1.65;;;7.70;99.90;;;;;;5075884;28;20055;-92
2024/01/01 05:37:37;;;;;;;4.80;1.15;;;7.70;99.90;;;;;;5076192;28;20040;-92
2024/01/01 05:40:03;;;;;;;3.85;0.93;;;7.60;99.90;;;;;;5075943;28;20126;-91
2024/01/01 05:42:31;;;;;;;4.32;1.00;;;7.70;99.90;;;;;;5072778;28;20512;-91
2024/01/01 05:44:57;;;;;;;6.38;1.33;;;7.60;99.90;;;;;;5062854;28;20062;-92
2024/01/01 05:47:22;;;;;;;6.65;1.15;;;7.60;99.90;;;;;;5082151;28;20482;-91
2024/01/01 05:49:48;;;;;;;6.30;1.45;;;7.60;99.90;;;;;;5087053;28;20545;-92
2024/01/01 05:52:14;;;;;;;6.88;1.88;;;7.60;99.90;;;;;;5075696;28;20050;-91
2024/01/01 05:54:39;;;;;;;4.30;1.13;;;7.60;99.90;;;;;;5087523;28;20040;-92
2024/01/01 05:57:05;;;;;;;6.40;1.42;;;7.60;99.90;;;;;;5055443;28;20059;-91
2024/01/01 05:59:30;;;;;;;7.82;1.23;;;7.60;99.90;;;;;;5055380;28;20044;-90
2024/01/01 06:01:56;;;;;;;10.23;2.63;;;7.60;99.90;;;;;;5055432;28;20045;-92
2024/01/01 06:04:22;;;;;;;6.75;1.80;;;7.60;99.90;;;;;;5073942;28;20044;-91
2024/01/01 06:06:47;;;;;;;4.28;0.88;;;7.60;99.90;;;;;;5061392;28;20127;-92
2024/01/01 06:09:13;;;;;;;5.80;1.05;;;7.60;99.90;;;;;;5072647;28;20610;-91
2024/01/01 06:11:38;;;;;;;8.80;1.30;;;7.60;99.90;;;;;;5074342;28;20169;-92
2024/01/01 06:14:04;;;;;;;2.42;0.57;;;7.60;99.90;;;;;;5074929;28;20114;-92
2024/01/01 06:16:30;;;;;;;4.03;1.45;;;7.60;99.90;;;;;;5084507;28;20547;-91
2024/01/01 06:18:55;;;;;;;11.05;2.30;;;7.60;99.90;;;;;;5092048;28;20034;-92
2024/01/01 06:21:21;;;;;;;5.43;1.65;;;7.60;99.90;;;;;;5091931;28;20468;-91
2024/01/01 06:23:46;;;;;;;6.97;1.15;;;7.70;99.90;;;;;;5074928;28;20036;-91
2024/01/01 06:26:13;;;;;;;5.15;1.02;;;7.60;99.90;;;;;;5074428;28;20073;-91
2024/01/01 06:28:39;;;;;;;4.22;1.05;;;7.60;99.90;;;;;;5072009;28;20040;-91
2024/01/01 06:31:05;;;;;;;7.80;1.17;;;7.70;99.90;;;;;;5091282;28;20051;-91
2024/01/01 06:33:31;;;;;;;5.07;1.00;;;7.60;99.90;;;;;;5062687;28;20047;-91
2024/01/01 06:35:57;;;;;;;6.35;1.42;;;7.60;99.90;;;;;;5061740;28;20040;-91
2024/01/01 06:38:22;;;;;;;6.72;1.27;;;7.60;99.90;;;;;;5074810;28;20048;-91
2024/01/01 06:40:48;;;;;;;3.25;1.15;;;7.60;99.90;;;;;;5074251;28;20055;-91
2024/01/01 06:43:14;;;;;;;4.57;1.27;;;7.60;99.90;;;;;;5066209;28;20064;-91
2024/01/01 06:45:40;;;;;;;5.05;1.20;;;7.70;99.90;;;;;;5061396;28;20074;-92
2024/01/01 06:48:05;;;;;;;5.75;1.20;;;7.60;99.90;;;;;;5071116;28;20153;-92
2024/01/01 06:50:31;;;;;;;8.13;1.58;;;7.60;99.90;;;;;;5074671;28;20047;-92
2024/01/01 06:52:57;;;;;;;7.80;2.22;;;7.60;99.90;;;;;;5056248;28;20033;-92
2024/01/01 06:55:22;;;;;;;3.63;1.27;;;7.60;99.90;;;;;;5054152;28;20048;-92
2024/01/01 06:57:48;;;;;;;7.85;2.95;;;7.60;99.90;;;;;;5054737;28;20032;-92
2024/01/01 07:00:15;;;;;;;7.22;1.83;;;7.60;99.90;;;;;;5072717;28;20119;-93
2024/01/01 07:02:41;;;;;;;7.70;0.98;;;7.60;99.90;;;;;;5076618;28;20031;-91
2024/01/01 07:05:07;;;;;;;5.07;1.35;;;7.60;99.90;;;;;;5073875;28;20055;-92
2024/01/01 07:07:33;;;;;;;4.13;1.25;;;7.60;99.90;;;;;;5088545;28;20410;-91
2024/01/01 07:09:59;;;;;;;6.97;1.23;;;7.50;99.90;;;;;;5073138;28;20039;-92
2024/01/01 07:12:27;;;;;;;1.98;0.52;;;7.60;99.90;;;;;;5071452;28;20513;-92
2024/01/01 07:14:53;;;;;;;1.38;0.55;;;7.50;99.90;;;;;;5060387;28;20068;-92
2024/01/01 07:17:20;;;;;;;3.90;0.88;;;7.50;99.90;;;;;;5073607;28;20122;-92
2024/01/01 07:19:46;;;;;;;3.95;0.82;;;7.50;99.90;;;;;;5074105;28;20112;-91
2024/01/01 07:22:13;;;;;;;8.25;0.90;;;7.50;99.90;;;;;;5075614;28;20408;-92
2024/01/01 07:24:39;;;;;;;6.25;1.90;;;7.50;99.90;;;;;;5073208;28;20552;-91
2024/01/01 07:27:05;;;;;;;5.97;1.35;;;7.50;99.90;;;;;;5074066;28;20032;-91
2024/01/01 07:29:31;;;;;;;3.85;1.45;;;7.50;99.90;;;;;;5090831;28;20050;-84
2024/01/01 07:31:57;;;;;;;6.30;1.30;;;7.50;99.90;;;;;;5090855;28;20048;-90
2024/01/01 07:34:24;;;;;;;3.45;1.17;;;7.50;99.90;;;;;;5073466;28;20438;-91
2024/01/01 07:36:50;;;;;;;7.03;1.02;;;7.50;99.90;;;;;;5073566;28;20043;-90
2024/01/01 07:39:19;;;;;;;6.13;1.10;;;7.50;99.90;;;;;;5073349;28;20052;-91
2024/01/01 07:41:48;;;;;;;4.88;1.25;;;7.50;99.90;;;;;;5090458;28;20039;-90
2024/01/01 07:44:14;;;;;;;6.50;1.50;;;7.50;99.90;;;;;;5064709;28;20040;-91
2024/01/01 07:46:41;;;;;;;5.13;1.10;;;7.50;99.90;;;;;;5077698;28;20028;-91
2024/01/01 07:49:07;;;;;;;6.20;2.65;;;7.50;99.90;;;;;;5050421;28;20028;-90
2024/01/01 07:51:34;;;;;;;4.22;0.90;;;7.60;99.90;;;;;;5051724;28;20040;-91
2024/01/01 07:53:59;;;;;;;5.90;1.10;;;7.50;99.90;;;;;;5060034;28;20186;-90
2024/01/01 07:56:26;;;;;;;3.63;1.27;;;7.50;99.90;;;;;;5061208;28;20558;-90
2024/01/01 07:58:53;;;;;;;6.28;1.23;;;7.50;99.90;;;;;;5052779;28;20044;-91
2024/01/01 08:01:19;;;;;;;4.57;1.20;;;7.50;99.90;;;;;;5053311;28;20041;-91
2024/01/01 08:03:45;;;;;;;9.73;2.50;;;7.50;99.90;;;;;;5066520;28;20097;-90
2024/01/01 08:06:11;;;;;;;2.33;0.82;;;7.50;99.90;;;;;;5072706;28;20487;-91
2024/01/01 08:08:37;;;;;;;5.80;1.42;;;7.50;99.90;;;;;;5050892;28;20074;-91
2024/01/01 08:11:03;;;;;;;8.07;1.77;;;7.50;99.90;;;;;;5084720;28;20062;-91
2024/01/01 08:13:28;;;;;;;6.38;1.92;;;7.50;99.90;;;;;;5072805;28;20047;-91
2024/01/01 08:15:54;;;;;;;7.22;1.27;;;7.50;99.90;;;;;;5066542;28;20047;-90
2024/01/01 08:18:19;;;;;;;8.70;1.70;;;7.50;99.90;;;;;;5059883;28;20024;-91
2024/01/01 08:20:45;;;;;;;5.78;1.52;;;7.50;99.90;;;;;;5064263;28;20427;-90
2024/01/01 08:23:11;;;;;;;14.82;2.75;;;7.60;99.90;;;;;;5072061;28;20387;-91
2024/01/01 08:25:37;;;;;;;7.03;1.70;;;7.60;99.90;;;;;;5068742;28;20036;-91
2024/01/01 08:28:03;;;;;;;7.63;1.35;;;7.60;99.90;;;;;;5075113;28;20039;-91
2024/01/01 08:30:28;;;;;;;5.28;1.38;;;7.50;99.90;;;;;;5047767;28;20032;-91
2024/01/01 08:32:54;;;;;;;3.10;0.88;;;7.60;99.90;;;;;;5053811;28;20037;-91
2024/01/01 08:35:20;;;;;;;7.35;1.45;;;7.60;99.90;;;;;;5061870;28;20078;-91
2024/01/01 08:37:47;;;;;;;8.20;2.28;;;7.60;99.90;;;;;;5089582;28;20044;-91
2024/01/01 08:40:13;;;;;;;5.53;1.40;;;7.60;99.90;;;;;;5089553;28;20043;-92
2024/01/01 08:42:39;;;;;;;2.40;1.15;;;7.70;99.90;;;;;;5076674;28;20388;-91
2024/01/01 08:45:05;;;;;;;4.95;0.90;;;7.70;99.90;;;;;;5062892;28;20087;-91
2024/01/01 08:47:31;;;;;;;4.78;1.02;;;7.70;99.90;;;;;;5061064;28;20036;-92
2024/01/01 08:49:56;;;;;;;5.07;1.55;;;7.70;99.90;;;;;;5067615;28;20043;-92
2024/01/01 08:52:22;;;;;;;3.88;1.35;;;7.70;99.90;;;;;;5070229;28;20055;-91
2024/01/01 08:54:48;;;;;;;2.15;0.75;;;7.60;99.90;;;;;;5068926;28;20036;-91
2024/01/01 08:57:14;;;;;;;1.73;0.73;;;7.70;99.90;;;;;;5052329;28;20533;-90
2024/01/01 08:59:40;;;;;;;3.55;1.10;;;7.70;99.90;;;;;;5052426;28;20036;-91
2024/01/01 09:02:06;;;;;;;7.72;2.00;;;7.70;99.90;;;;;;5059853;28;20135;-91
2024/01/01 09:04:32;;;;;;;3.17;1.10;;;7.70;99.90;;;;;;5060333;28;20079;-91
2024/01/01 09:07:00;;;;;;;1.90;0.80;;;7.70;99.90;;;;;;5047924;28;20258;-90
2024/01/01 09:09:27;;;;;;;6.30;1.45;;;7.70;99.90;;;;;;5037199;28;20068;-90
2024/01/01 09:11:53;;;;;;;3.25;0.95;;;7.80;99.90;;;;;;5063259;28;20044;-90
2024/01/01 09:14:19;;;;;;;7.25;1.55;;;7.70;99.90;;;;;;5049157;28;20114;-91
2024/01/01 09:16:44;;;;;;;5.82;1.10;;;7.70;99.90;;;;;;5071330;28;20331;-91
2024/01/01 09:19:10;;;;;;;7.15;1.67;;;7.80;99.90;;;;;;5069466;28;20037;-91
2024/01/01 09:21:36;;;;;;;4.60;1.23;;;7.80;99.90;;;;;;5077638;28;20086;-85
2024/01/01 09:24:02;;;;;;;4.68;1.50;;;7.80;99.90;;;;;;5076177;28;20494;-89
2024/01/01 09:26:30;;;;;;;2.40;1.00;;;7.70;99.90;;;;;;5072064;28;20031;-91
2024/01/01 09:28:57;;;;;;;4.15;0.98;;;7.70;99.90;;;;;;5057525;28;20095;-90
2024/01/01 09:31:23;;;;;;;1.42;0.70;;;7.70;99.90;;;;;;5052956;28;20033;-90
2024/01/01 09:33:48;;;;;;;3.33;1.73;;;7.70;99.90;;;;;;5050762;28;20209;-90
2024/01/01 09:36:14;;;;;;;5.45;1.42;;;7.70;99.90;;;;;;5069801;28;20043;-90
2024/01/01 09:38:41;;;;;;;3.58;1.40;;;7.80;99.90;;;;;;5072182;28;20722;-89
2024/01/01 09:41:11;;;;;;;10.05;1.80;;;7.80;99.90;;;;;;5088879;28;20066;-90
2024/01/01 09:43:38;;;;;;;4.32;1.23;;;7.80;99.90;;;;;;5071585;28;20043;-91
2024/01/01 09:46:04;;;;;;;6.00;2.00;;;7.80;99.90;;;;;;5071888;28;20040;-90
2024/01/01 09:48:30;;;;;;;5.38;1.33;;;7.90;99.90;;;;;;5068327;28;20064;-90
2024/01/01 09:50:56;;;;;;;5.68;1.55;;;7.90;99.90;;;;;;5066942;28;20117;-90
2024/01/01 09:53:21;;;;;;;3.20;0.85;;;7.90;99.90;;;;;;5069508;28;20040;-89
2024/01/01 09:55:51;;;;;;;5.97;1.75;;;7.90;99.90;;;;;;5057139;28;20139;-89
2024/01/01 09:58:17;;;;;;;6.25;1.75;;;7.90;99.90;;;;;;5056240;28;20036;-91
2024/01/01 10:00:43;;;;;;;4.90;1.00;;;7.80;99.90;;;;;;5067388;28;20051;-91
2024/01/01 10:03:10;;;;;;;3.35;1.20;;;7.80;99.90;;;;;;5059073;28;20107;-91
2024/01/01 10:05:40;;;;;;;8.32;1.95;;;7.80;99.90;;;;;;5073613;28;20042;-91
2024/01/01 10:08:13;;;;;;;7.70;1.83;;;7.80;99.90;;;;;;5059792;28;20033;-90
2024/01/01 10:10:40;;;;;;;4.45;1.10;;;7.70;99.90;;;;;;5050839;28;20044;-91
2024/01/01 10:13:10;;;;;;;10.30;1.88;;;7.80;99.90;;;;;;5052819;28;20036;-92
2024/01/01 10:15:38;;;;;;;4.55;1.13;;;7.70;99.90;;;;;;5047790;28;20492;-91
2024/01/01 10:18:15;;;;;;;4.65;1.17;;;7.80;99.90;;;;;;5071891;28;20044;-90
2024/01/01 10:20:45;;;;;;;7.20;1.60;;;7.80;99.90;;;;;;5092196;28;20422;-90
2024/01/01 10:23:20;;;;;;;4.25;1.40;;;7.80;99.90;;;;;;5058486;28;20127;-90
2024/01/01 10:25:51;;;;;;;4.35;1.48;;;7.80;99.90;;;;;;5060621;28;20036;-89
2024/01/01 10:28:17;;;;;;;3.63;1.27;;;7.80;99.90;;;;;;5072698;28;20143;-90
2024/01/01 10:30:47;;;;;;;6.18;1.40;;;7.80;99.90;;;;;;5071338;28;20068;-91
2024/01/01 10:33:14;;;;;;;4.43;1.23;;;7.80;99.90;;;;;;5057290;28;20390;-91
2024/01/01 10:35:40;;;;;;;6.30;1.63;;;7.80;99.90;;;;;;5040631;28;20443;-89
2024/01/01 10:38:06;;;;;;;5.78;1.73;;;7.80;99.90;;;;;;5067712;28;20075;-90
2024/01/01 10:40:32;;;;;;;2.08;0.65;;;7.90;99.90;;;;;;5071766;28;20133;-90
2024/01/01 10:42:58;;;;;;;5.45;1.38;;;8.00;99.90;;;;;;5061669;28;20502;-90
2024/01/01 10:45:24;;;;;;;6.82;1.60;;;7.90;99.90;;;;;;5074686;28;20048;-91
2024/01/01 10:47:52;;;;;;;1.88;0.93;;;7.90;99.90;;;;;;5074891;28;20040;-91
2024/01/01 10:50:32;;;;;;;4.97;1.08;;;7.90;99.90;;;;;;5056931;28;20047;-91
2024/01/01 10:53:26;;;;;;;4.68;1.20;;;7.80;99.90;;;;;;5070911;28;20558;-91
2024/01/01 10:56:12;;;;;;;2.33;0.80;;;7.90;99.90;;;;;;5057733;28;20170;-90
2024/01/01 10:59:02;;;;;;;3.88;1.38;;;8.00;99.90;;;;;;5060201;28;20104;-90
2024/01/01 11:01:30;;;;;;;4.55;1.30;;;8.00;99.90;;;;;;5074908;28;20115;-90
2024/01/01 11:03:55;;;;;;;4.75;1.15;;;7.90;99.90;;;;;;5084242;28;20094;-89
2024/01/01 11:06:31;;;;;;;3.13;1.02;;;7.90;99.90;;;;;;5081466;28;20040;-90
2024/01/01 11:09:17;;;;;;;3.88;0.93;;;7.90;99.90;;;;;;5068501;28;20040;-90
2024/01/01 11:11:47;;;;;;;5.70;1.50;;;7.90;99.90;;;;;;5048417;28;20621;-90
2024/01/01 11:14:44;;;;;;;6.68;1.27;;;7.90;99.90;;;;;;5069816;28;20120;-90
2024/01/01 11:17:11;;;;;;;7.18;2.00;;;7.90;99.90;;;;;;5089211;28;20050;-87
2024/01/01 11:19:46;;;;;;;5.50;1.52;;;7.80;99.90;;;;;;5088674;28;20396;-91
2024/01/01 11:22:23;;;;;;;4.65;1.05;;;7.80;99.90;;;;;;5063129;28;20052;-90
2024/01/01 11:24:50;;;;;;;3.63;1.15;;;7.80;99.90;;;;;;5073971;28;20079;-90
2024/01/01 11:27:32;;;;;;;2.47;0.93;;;7.80;99.90;;;;;;5091432;28;20032;-91
2024/01/01 11:30:04;;;;;;;3.05;0.82;;;7.80;99.90;;;;;;5092271;28;20085;-90
2024/01/01 11:32:30;;;;;;;9.85;1.50;;;7.80;99.90;;;;;;5067798;28;20083;-90
2024/01/01 11:35:08;;;;;;;2.38;0.77;;;7.80;99.90;;;;;;5096182;28;20036;-90
2024/01/01 11:37:39;;;;;;;3.67;1.05;;;7.80;99.90;;;;;;5079874;28;20118;-90
2024/01/01 11:40:06;;;;;;;1.15;0.73;;;7.70;99.90;;;;;;5059619;28;20064;-90
2024/01/01 11:42:32;;;;;;;3.90;1.05;;;7.70;99.90;;;;;;5053989;28;20518;-90
2024/01/01 11:45:07;;;;;;;2.17;0.40;;;7.70;99.90;;;;;;5050647;28;20068;-90
2024/01/01 11:47:33;;;;;;;2.03;0.55;;;7.70;99.90;;;;;;5073603;28;20044;-90
2024/01/01 11:50:02;;;;;;;5.15;0.80;;;7.70;99.90;;;;;;5072554;28;20067;-89
2024/01/01 11:52:27;;;;;;;2.22;0.65;;;7.70;99.90;;;;;;5073670;28;20036;-90
2024/01/01 11:54:53;;;;;;;2.58;0.70;;;7.90;99.90;;;;;;5064034;28;20090;-90
2024/01/01 11:57:19;;;;;;;2.92;0.88;;;8.10;99.90;;;;;;5083036;28;20530;-90
2024/01/01 11:59:45;;;;;;;1.55;0.60;;;8.40;99.90;;;;;;5067579;28;20036;-90
2024/01/01 12:02:11;;;;;;;5.80;1.42;;;8.70;99.90;;;;;;5066352;28;20043;-90
2024/01/01 12:04:39;;;;;;;3.03;1.10;;;8.90;99.90;;;;;;5063267;28;20037;-91
2024/01/01 12:07:05;;;;;;;4.68;1.00;;;9.10;99.90;;;;;;5069723;28;20659;-90
2024/01/01 12:09:31;;;;;;;5.00;1.02;;;9.30;99.90;;;;;;5057688;28;20037;-90
2024/01/01 12:12:11;;;;;;;6.43;1.55;;;9.80;99.90;;;;;;5070152;28;20036;-89
2024/01/01 12:14:37;;;;;;;7.68;1.08;;;10.20;99.90;;;;;;5043944;28;20040;-89
2024/01/01 12:17:05;;;;;;;3.90;0.70;;;10.00;99.90;;;;;;5059626;28;20598;-91
2024/01/01 12:19:31;;;;;;;6.97;2.25;;;9.80;99.90;;;;;;5078271;28;20072;-89
2024/01/01 12:21:57;;;;;;;3.50;1.02;;;9.60;99.90;;;;;;5061604;28;20145;-90
2024/01/01 12:24:22;;;;;;;3.63;0.65;;;9.80;99.90;;;;;;5063015;28;20507;-90
2024/01/01 12:26:52;;;;;;;5.28;0.93;;;10.70;99.90;;;;;;5090013;28;20050;-91
2024/01/01 12:29:21;;;;;;;5.68;0.98;;;10.70;99.90;;;;;;5072707;28;20048;-90
2024/01/01 12:31:48;;;;;;;4.30;1.30;;;10.40;99.90;;;;;;5089917;28;20109;-91
2024/01/01 12:34:19;;;;;;;6.30;1.38;;;10.00;99.90;;;;;;5072429;28;20036;-89
2024/01/01 12:36:47;;;;;;;3.20;0.98;;;9.60;99.90;;;;;;5058995;28;20036;-90
2024/01/01 12:39:15;;;;;;;2.85;0.65;;;9.30;99.90;;;;;;5070188;28;20410;-89
2024/01/01 12:41:41;;;;;;;6.93;0.60;;;9.10;99.90;;;;;;5072435;28;20120;-89
2024/01/01 12:44:07;;;;;;;4.22;0.77;;;8.80;99.90;;;;;;5059858;28;20122;-89
2024/01/01 12:46:33;;;;;;;3.35;1.10;;;8.70;99.90;;;;;;5085888;28;20123;-90
2024/01/01 12:48:59;;;;;;;7.20;1.02;;;8.80;99.90;;;;;;5085939;28;20609;-90
2024/01/01 12:51:27;;;;;;;3.42;0.65;;;9.50;99.90;;;;;;5056311;28;20373;-90